createdAt,value
2022-09-03T00:00:26.516Z,15.59
2022-09-03T00:03:05.051Z,15.55
2022-09-03T00:05:55.962Z,15.54
2022-09-03T00:08:40.819Z,15.51
2022-09-03T00:11:31.255Z,15.53
2022-09-03T00:14:23.406Z,15.50
2022-09-03T00:17:13.627Z,15.49
2022-09-03T00:20:03.634Z,15.45
2022-09-03T00:22:39.469Z,15.40
2022-09-03T00:25:14.451Z,15.39
2022-09-03T00:27:45.873Z,15.39
2022-09-03T00:30:19.976Z,15.35
2022-09-03T00:33:19.393Z,15.35
2022-09-03T00:36:05.558Z,15.27
2022-09-03T00:38:34.392Z,15.22
2022-09-03T00:41:20.251Z,15.21
2022-09-03T00:44:20.088Z,15.19
2022-09-03T00:47:09.601Z,15.13
2022-09-03T00:50:02.696Z,14.99
2022-09-03T00:52:56.763Z,14.87
2022-09-03T00:55:55.721Z,14.78
2022-09-03T00:58:56.083Z,14.72
2022-09-03T01:01:46.145Z,14.69
2022-09-03T01:04:58.217Z,14.77
2022-09-03T01:07:39.713Z,14.79
2022-09-03T01:10:34.673Z,14.80
2022-09-03T01:13:25.726Z,14.86
2022-09-03T01:16:13.229Z,14.90
2022-09-03T01:19:07.084Z,14.92
2022-09-03T01:22:10.351Z,14.92
2022-09-03T01:25:15.338Z,14.81
2022-09-03T01:28:10.371Z,14.83
2022-09-03T01:30:42.823Z,14.84
2022-09-03T01:33:56.052Z,14.87
2022-09-03T01:36:30.941Z,14.83
2022-09-03T01:39:35.170Z,14.80
2022-09-03T01:42:26.755Z,14.88
2022-09-03T01:45:14.181Z,14.84
2022-09-03T01:47:51.094Z,14.77
2022-09-03T01:50:45.813Z,14.70
2022-09-03T01:53:54.365Z,14.66
2022-09-03T01:56:46.102Z,14.71
2022-09-03T01:59:47.462Z,14.73
2022-09-03T02:02:23.456Z,14.70
2022-09-03T02:05:12.754Z,14.72
2022-09-03T02:07:59.331Z,14.68
2022-09-03T02:11:13.961Z,14.76
2022-09-03T02:13:55.247Z,14.78
2022-09-03T02:16:35.433Z,14.68
2022-09-03T02:19:10.062Z,14.67
2022-09-03T02:21:49.761Z,14.62
2022-09-03T02:24:17.352Z,14.60
2022-09-03T02:26:46.845Z,14.54
2022-09-03T02:29:17.529Z,14.52
2022-09-03T02:31:46.437Z,14.48
2022-09-03T02:34:19.785Z,14.49
2022-09-03T02:36:49.971Z,14.46
2022-09-03T02:39:17.561Z,14.47
2022-09-03T02:41:45.669Z,14.45
2022-09-03T02:44:46.920Z,14.43
2022-09-03T02:47:15.416Z,14.44
2022-09-03T02:49:46.250Z,14.44
2022-09-03T02:52:13.887Z,14.39
2022-09-03T02:54:43.531Z,14.36
2022-09-03T02:57:15.269Z,14.37
2022-09-03T02:59:46.246Z,14.34
2022-09-03T03:02:16.498Z,14.32
2022-09-03T03:04:45.148Z,14.27
2022-09-03T03:07:14.371Z,14.28
2022-09-03T03:09:44.883Z,14.24
2022-09-03T03:12:15.422Z,14.24
2022-09-03T03:14:44.017Z,14.18
2022-09-03T03:17:13.641Z,14.17
2022-09-03T03:19:42.963Z,14.18
2022-09-03T03:22:13.312Z,14.18
2022-09-03T03:24:41.050Z,14.15
2022-09-03T03:27:14.442Z,14.11
2022-09-03T03:29:44.610Z,14.17
2022-09-03T03:32:13.888Z,14.15
2022-09-03T03:34:41.820Z,14.06
2022-09-03T03:37:10.142Z,14.05
2022-09-03T03:39:46.986Z,14.02
2022-09-03T03:42:15.247Z,14.01
2022-09-03T03:44:46.122Z,14.01
2022-09-03T03:47:17.034Z,14.00
2022-09-03T03:49:45.112Z,13.92
2022-09-03T03:52:16.043Z,14.01
2022-09-03T03:54:45.361Z,13.92
2022-09-03T03:57:14.439Z,13.94
2022-09-03T03:59:41.630Z,13.87
2022-09-03T04:02:09.271Z,13.85
2022-09-03T04:04:36.772Z,13.84
2022-09-03T04:07:05.197Z,13.88
2022-09-03T04:09:34.367Z,13.84
2022-09-03T04:12:05.320Z,13.80
2022-09-03T04:14:35.310Z,13.80
2022-09-03T04:17:06.915Z,13.84
2022-09-03T04:19:35.713Z,13.84
2022-09-03T04:22:04.701Z,13.79
2022-09-03T04:24:35.457Z,13.78
2022-09-03T04:27:05.524Z,13.73
2022-09-03T04:29:34.278Z,13.67
2022-09-03T04:32:22.031Z,13.68
2022-09-03T04:34:52.914Z,13.67
2022-09-03T04:37:20.510Z,13.67
2022-09-03T04:39:51.712Z,13.68
2022-09-03T04:42:18.837Z,13.66
2022-09-03T04:44:45.795Z,13.66
2022-09-03T04:47:12.930Z,13.64
2022-09-03T04:49:40.370Z,13.61
2022-09-03T04:52:09.507Z,13.64
2022-09-03T04:54:36.515Z,13.71
2022-09-03T04:57:05.027Z,13.71
2022-09-03T04:59:33.077Z,13.78
2022-09-03T05:02:03.513Z,13.81
2022-09-03T05:04:30.568Z,13.78
2022-09-03T05:06:59.009Z,13.81
2022-09-03T05:09:27.535Z,13.84
2022-09-03T05:11:58.441Z,13.90
2022-09-03T05:14:26.774Z,13.91
2022-09-03T05:16:54.044Z,13.95
2022-09-03T05:19:21.110Z,13.97
2022-09-03T05:21:51.440Z,13.99
2022-09-03T05:24:19.501Z,13.98
2022-09-03T05:26:50.192Z,13.87
2022-09-03T05:29:17.231Z,13.93
2022-09-03T05:31:45.346Z,14.04
2022-09-03T05:34:16.645Z,13.87
2022-09-03T05:36:47.243Z,13.68
2022-09-03T05:39:15.346Z,13.98
2022-09-03T05:41:52.691Z,14.08
2022-09-03T05:44:27.511Z,14.15
2022-09-03T05:47:07.686Z,14.24
2022-09-03T05:49:36.137Z,14.44
2022-09-03T05:52:04.352Z,14.62
2022-09-03T05:54:33.355Z,14.75
2022-09-03T05:57:05.960Z,14.85
2022-09-03T05:59:35.141Z,15.02
2022-09-03T06:02:05.156Z,15.16
2022-09-03T06:04:34.435Z,15.21
2022-09-03T06:07:03.936Z,15.30
2022-09-03T06:09:33.725Z,15.41
2022-09-03T06:12:00.672Z,15.54
2022-09-03T06:14:34.926Z,15.67
2022-09-03T06:17:06.751Z,15.83
2022-09-03T06:19:34.031Z,16.02
2022-09-03T06:22:03.463Z,16.09
2022-09-03T06:24:33.350Z,16.19
2022-09-03T06:27:00.434Z,16.46
2022-09-03T06:29:29.655Z,16.40
2022-09-03T06:32:00.411Z,16.62
2022-09-03T06:34:30.295Z,16.91
2022-09-03T06:37:00.440Z,16.78
2022-09-03T06:39:29.605Z,17.11
2022-09-03T06:41:59.132Z,17.28
2022-09-03T06:44:35.649Z,17.23
2022-09-03T06:47:03.329Z,17.41
2022-09-03T06:49:36.191Z,17.50
2022-09-03T06:52:04.851Z,17.73
2022-09-03T06:54:32.067Z,18.01
2022-09-03T06:56:59.237Z,18.38
2022-09-03T06:59:27.098Z,18.58
2022-09-03T07:01:56.435Z,19.05
2022-09-03T07:04:27.275Z,19.27
2022-09-03T07:06:59.895Z,19.50
2022-09-03T07:09:27.210Z,19.16
2022-09-03T07:12:00.751Z,18.79
2022-09-03T07:14:30.638Z,18.93
2022-09-03T07:17:00.677Z,19.27
2022-09-03T07:19:34.085Z,19.65
2022-09-03T07:22:02.030Z,19.83
2022-09-03T07:24:29.592Z,20.15
2022-09-03T07:27:00.563Z,19.84
2022-09-03T07:29:30.511Z,20.15
2022-09-03T07:32:00.830Z,20.51
2022-09-03T07:37:13.690Z,21.22
2022-09-03T07:39:44.511Z,21.54
2022-09-03T07:42:12.660Z,21.77
2022-09-03T07:44:40.301Z,22.08
2022-09-03T07:47:07.620Z,22.31
2022-09-03T07:49:35.608Z,22.63
2022-09-03T07:52:04.059Z,22.63
2022-09-03T07:54:31.996Z,22.43
2022-09-03T07:57:00.204Z,22.29
2022-09-03T07:59:27.234Z,22.05
2022-09-03T08:01:54.830Z,22.33
2022-09-03T08:04:22.991Z,22.72
2022-09-03T08:06:55.988Z,22.97
2022-09-03T08:09:34.227Z,23.30
2022-09-03T08:12:01.235Z,23.57
2022-09-03T08:14:38.192Z,23.56
2022-09-03T08:17:17.394Z,23.81
2022-09-03T08:19:46.498Z,23.67
2022-09-03T08:22:17.560Z,23.68
2022-09-03T08:24:50.199Z,23.88
2022-09-03T08:27:20.466Z,23.70
2022-09-03T08:29:56.737Z,23.78
2022-09-03T08:32:23.830Z,23.65
2022-09-03T08:34:55.111Z,23.82
2022-09-03T08:37:30.431Z,23.81
2022-09-03T08:39:57.943Z,23.95
2022-09-03T08:43:19.727Z,23.77
2022-09-03T08:45:49.306Z,23.62
2022-09-03T08:48:34.308Z,23.80
2022-09-03T08:51:06.204Z,23.81
2022-09-03T08:53:54.549Z,23.89
2022-09-03T08:56:30.513Z,24.14
2022-09-03T08:58:58.161Z,24.56
2022-09-03T09:02:12.778Z,24.97
2022-09-03T09:04:47.256Z,25.55
2022-09-03T09:07:24.923Z,26.02
2022-09-03T09:10:21.576Z,26.16
2022-09-03T09:13:20.395Z,25.93
2022-09-03T09:16:14.788Z,26.27
2022-09-03T09:19:24.848Z,26.56
2022-09-03T09:22:02.099Z,26.55
2022-09-03T09:24:43.746Z,27.14
2022-09-03T09:27:21.098Z,27.26
2022-09-03T09:29:57.118Z,26.86
2022-09-03T09:32:34.921Z,26.60
2022-09-03T09:35:15.552Z,26.59
2022-09-03T09:37:55.140Z,26.28
2022-09-03T09:40:34.480Z,26.29
2022-09-03T09:43:22.270Z,26.80
2022-09-03T09:45:54.511Z,26.68
2022-09-03T09:48:33.693Z,26.88
2022-09-03T09:51:25.682Z,26.54
2022-09-03T09:54:20.438Z,26.84
2022-09-03T09:57:00.846Z,26.87
2022-09-03T09:59:34.743Z,26.98
2022-09-03T10:02:30.132Z,27.13
2022-09-03T10:05:15.327Z,27.04
2022-09-03T10:07:46.311Z,27.41
2022-09-03T10:10:21.311Z,27.59
2022-09-03T10:13:02.379Z,27.69
2022-09-03T10:16:00.413Z,27.90
2022-09-03T10:18:55.265Z,27.99
2022-09-03T10:21:50.561Z,28.30
2022-09-03T10:24:59.685Z,28.56
2022-09-03T10:27:32.094Z,28.15
2022-09-03T10:30:00.934Z,28.02
2022-09-03T10:33:14.018Z,28.01
2022-09-03T10:35:56.923Z,28.31
2022-09-03T10:38:36.809Z,27.94
2022-09-03T10:41:07.874Z,27.82
2022-09-03T10:44:08.370Z,27.43
2022-09-03T10:47:14.745Z,27.27
2022-09-03T10:50:16.425Z,27.33
2022-09-03T10:53:07.650Z,27.44
2022-09-03T10:56:04.110Z,27.43
2022-09-03T10:58:50.922Z,27.55
2022-09-03T11:02:15.557Z,27.31
2022-09-03T11:05:09.631Z,27.81
2022-09-03T11:08:05.205Z,28.08
2022-09-03T11:10:41.538Z,27.95
2022-09-03T11:13:33.906Z,27.58
2022-09-03T11:16:06.743Z,27.91
2022-09-03T11:19:16.718Z,27.75
2022-09-03T11:21:50.021Z,28.01
2022-09-03T11:24:33.810Z,28.56
2022-09-03T11:27:39.732Z,29.00
2022-09-03T11:30:16.962Z,29.34
2022-09-03T11:33:01.471Z,29.64
2022-09-03T11:35:39.053Z,29.59
2022-09-03T11:38:24.128Z,29.75
2022-09-03T11:41:27.480Z,30.40
2022-09-03T11:43:55.660Z,30.50
2022-09-03T11:46:24.536Z,30.62
2022-09-03T11:49:09.717Z,30.86
2022-09-03T11:51:39.791Z,30.88
2022-09-03T11:54:39.416Z,30.92
2022-09-03T11:57:30.299Z,30.70
2022-09-03T12:00:25.124Z,30.55
2022-09-03T12:02:59.142Z,30.67
2022-09-03T12:06:04.771Z,29.53
2022-09-03T12:09:15.961Z,29.92
2022-09-03T12:12:06.228Z,30.18
2022-09-03T12:14:50.270Z,30.12
2022-09-03T12:18:25.311Z,29.82
2022-09-03T12:21:03.640Z,29.85
2022-09-03T12:23:34.450Z,30.06
2022-09-03T12:26:09.916Z,30.18
2022-09-03T12:28:45.957Z,30.07
2022-09-03T12:31:38.088Z,29.86
2022-09-03T12:34:15.406Z,29.80
2022-09-03T12:36:50.460Z,29.82
2022-09-03T12:42:38.308Z,29.30
2022-09-03T12:45:10.480Z,29.40
2022-09-03T12:47:54.561Z,29.14
2022-09-03T12:50:33.744Z,29.23
2022-09-03T12:53:03.801Z,29.39
2022-09-03T12:55:43.847Z,29.61
2022-09-03T12:58:54.458Z,29.63
2022-09-03T13:01:34.425Z,29.97
2022-09-03T13:04:20.045Z,29.90
2022-09-03T13:07:14.148Z,30.29
2022-09-03T13:09:45.170Z,30.22
2022-09-03T13:12:46.555Z,29.70
2022-09-03T13:15:24.549Z,29.82
2022-09-03T13:18:20.425Z,29.82
2022-09-03T13:20:56.880Z,29.49
2022-09-03T13:23:48.335Z,29.64
2022-09-03T13:26:36.483Z,29.44
2022-09-03T13:29:41.131Z,29.36
2022-09-03T13:32:50.996Z,29.62
2022-09-03T13:35:49.124Z,29.94
2022-09-03T13:38:50.417Z,30.02
2022-09-03T13:41:42.093Z,30.08
2022-09-03T13:44:37.117Z,29.85
2022-09-03T13:48:08.613Z,30.07
2022-09-03T13:50:46.100Z,29.83
2022-09-03T13:53:26.351Z,29.88
2022-09-03T13:55:59.516Z,29.55
2022-09-03T13:58:50.330Z,29.54
2022-09-03T14:01:28.578Z,29.79
2022-09-03T14:04:05.625Z,29.37
2022-09-03T14:06:56.240Z,29.79
2022-09-03T14:10:11.926Z,29.61
2022-09-03T14:13:17.573Z,28.60
2022-09-03T14:15:55.890Z,28.73
2022-09-03T14:18:41.892Z,28.76
2022-09-03T14:21:45.870Z,28.45
2022-09-03T14:24:37.592Z,28.12
2022-09-03T14:27:14.928Z,27.65
2022-09-03T14:29:56.524Z,27.58
2022-09-03T14:32:29.625Z,27.81
2022-09-03T14:35:20.064Z,27.83
2022-09-03T14:38:20.532Z,27.82
2022-09-03T14:41:00.644Z,27.58
2022-09-03T14:43:46.243Z,27.44
2022-09-03T14:46:47.040Z,27.30
2022-09-03T14:49:35.382Z,27.00
2022-09-03T14:52:14.093Z,26.88
2022-09-03T14:55:00.838Z,26.55
2022-09-03T14:57:48.006Z,26.73
2022-09-03T15:00:24.092Z,26.83
2022-09-03T15:02:59.906Z,26.84
2022-09-03T15:06:20.289Z,26.81
2022-09-03T15:09:16.134Z,26.82
2022-09-03T15:11:56.321Z,26.99
2022-09-03T15:14:44.312Z,27.08
2022-09-03T15:17:45.426Z,27.07
2022-09-03T15:20:37.474Z,26.86
2022-09-03T15:23:55.792Z,26.94
2022-09-03T15:27:08.299Z,26.68
2022-09-03T15:30:07.739Z,26.37
2022-09-03T15:33:10.801Z,26.36
2022-09-03T15:35:46.112Z,26.44
2022-09-03T15:38:39.393Z,26.54
2022-09-03T15:41:40.431Z,26.65
2022-09-03T15:44:20.754Z,26.63
2022-09-03T15:47:14.247Z,26.54
2022-09-03T15:50:22.267Z,26.49
2022-09-03T15:53:26.893Z,26.52
2022-09-03T15:56:34.449Z,26.52
2022-09-03T15:59:12.619Z,26.54
2022-09-03T16:01:59.435Z,26.61
2022-09-03T16:04:38.835Z,26.62
2022-09-03T16:07:44.845Z,26.50
2022-09-03T16:10:24.630Z,26.54
2022-09-03T16:13:34.292Z,26.47
2022-09-03T16:16:10.089Z,26.50
2022-09-03T16:18:55.863Z,26.36
2022-09-03T16:22:04.307Z,26.29
2022-09-03T16:25:10.931Z,26.23
2022-09-03T16:27:42.429Z,26.26
2022-09-03T16:30:14.212Z,26.27
2022-09-03T16:32:47.570Z,26.07
2022-09-03T16:35:19.106Z,25.88
2022-09-03T16:38:05.056Z,25.68
2022-09-03T16:40:56.071Z,25.54
2022-09-03T16:44:10.541Z,25.48
2022-09-03T16:47:20.315Z,25.34
2022-09-03T16:49:57.024Z,25.18
2022-09-03T16:53:01.133Z,25.29
2022-09-03T16:55:40.150Z,25.40
2022-09-03T16:58:55.343Z,25.45
2022-09-03T17:02:03.607Z,25.27
2022-09-03T17:04:53.656Z,25.21
2022-09-03T17:07:45.439Z,25.27
2022-09-03T17:10:31.095Z,25.18
2022-09-03T17:13:28.021Z,24.99
2022-09-03T17:16:31.653Z,24.95
2022-09-03T17:19:35.357Z,25.05
2022-09-03T17:22:10.982Z,24.98
2022-09-03T17:24:56.710Z,24.86
2022-09-03T17:28:24.885Z,24.80
2022-09-03T17:31:10.240Z,24.59
2022-09-03T17:34:41.176Z,24.57
2022-09-03T17:37:30.130Z,24.48
2022-09-03T17:40:36.656Z,24.37
2022-09-03T17:43:46.951Z,24.48
2022-09-03T17:46:47.836Z,24.17
2022-09-03T17:49:30.452Z,24.07
2022-09-03T17:52:46.889Z,23.90
2022-09-03T17:56:01.237Z,23.70
2022-09-03T17:58:51.356Z,23.59
2022-09-03T18:01:29.556Z,23.68
2022-09-03T18:04:20.337Z,23.61
2022-09-03T18:07:28.198Z,23.60
2022-09-03T18:10:24.800Z,23.61
2022-09-03T18:13:23.660Z,23.56
2022-09-03T18:16:16.176Z,23.56
2022-09-03T18:18:51.511Z,23.42
2022-09-03T18:21:45.741Z,23.31
2022-09-03T18:24:59.580Z,23.06
2022-09-03T18:28:16.341Z,22.99
2022-09-03T18:31:05.129Z,22.98
2022-09-03T18:33:50.811Z,22.93
2022-09-03T18:36:36.492Z,22.86
2022-09-03T18:39:35.033Z,22.86
2022-09-03T18:42:59.663Z,22.79
2022-09-03T18:47:05.772Z,22.76
2022-09-03T18:49:52.120Z,22.69
2022-09-03T18:52:51.058Z,22.72
2022-09-03T18:56:12.419Z,22.76
2022-09-03T18:59:29.217Z,22.57
2022-09-03T19:02:17.145Z,22.40
2022-09-03T19:05:51.951Z,22.42
2022-09-03T19:08:48.441Z,22.42
2022-09-03T19:11:56.575Z,22.42
2022-09-03T19:14:51.552Z,22.36
2022-09-03T19:17:56.955Z,22.31
2022-09-03T19:20:50.870Z,22.27
2022-09-03T19:23:38.417Z,22.19
2022-09-03T19:26:40.830Z,22.09
2022-09-03T19:30:10.781Z,22.02
2022-09-03T19:33:08.683Z,21.98
2022-09-03T19:36:27.563Z,21.88
2022-09-03T19:39:40.321Z,21.88
2022-09-03T19:42:52.180Z,21.86
2022-09-03T19:46:26.975Z,21.86
2022-09-03T19:49:37.510Z,21.82
2022-09-03T19:52:56.430Z,21.81
2022-09-03T19:55:58.030Z,21.82
2022-09-03T19:58:51.200Z,21.92
2022-09-03T20:01:40.334Z,21.86
2022-09-03T20:04:35.035Z,21.84
2022-09-03T20:07:29.099Z,21.92
2022-09-03T20:10:20.880Z,21.91
2022-09-03T20:13:17.698Z,21.91
2022-09-03T20:16:01.337Z,21.90
2022-09-03T20:18:31.190Z,21.94
2022-09-03T20:21:20.801Z,21.97
2022-09-03T20:24:20.904Z,21.87
2022-09-03T20:27:00.707Z,21.88
2022-09-03T20:30:04.699Z,21.85
2022-09-03T20:32:48.880Z,21.83
2022-09-03T20:35:43.119Z,21.73
2022-09-03T20:38:34.873Z,21.72
2022-09-03T20:41:24.580Z,21.74
2022-09-03T20:44:35.183Z,21.76
2022-09-03T20:47:45.501Z,21.55
2022-09-03T20:50:46.300Z,21.57
2022-09-03T20:53:34.485Z,21.59
2022-09-03T20:56:25.135Z,21.42
2022-09-03T20:59:24.950Z,21.27
2022-09-03T21:02:29.415Z,21.30
2022-09-03T21:05:14.619Z,21.27
2022-09-03T21:08:06.380Z,21.29
2022-09-03T21:10:50.497Z,21.24
2022-09-03T21:13:56.059Z,21.24
2022-09-03T21:17:00.409Z,21.11
2022-09-03T21:19:54.109Z,21.15
2022-09-03T21:22:54.879Z,21.17
2022-09-03T21:25:30.365Z,21.12
2022-09-03T21:28:15.416Z,21.11
2022-09-03T21:30:50.810Z,21.01
2022-09-03T21:33:35.675Z,20.93
2022-09-03T21:36:32.495Z,20.94
2022-09-03T21:39:31.296Z,20.93
2022-09-03T21:42:18.414Z,20.81
2022-09-03T21:45:14.977Z,20.73
2022-09-03T21:47:51.509Z,20.69
2022-09-03T21:50:32.095Z,20.64
2022-09-03T21:53:09.901Z,20.61
2022-09-03T21:55:56.950Z,20.58
2022-09-03T21:59:08.320Z,20.56
2022-09-03T22:02:00.725Z,20.53
2022-09-03T22:04:29.007Z,20.45
2022-09-03T22:07:10.940Z,20.52
2022-09-03T22:09:45.901Z,20.50
2022-09-03T22:12:21.172Z,20.44
2022-09-03T22:14:55.919Z,20.41
2022-09-03T22:17:48.392Z,20.42
2022-09-03T22:20:19.736Z,20.44
2022-09-03T22:23:00.337Z,20.43
2022-09-03T22:25:45.328Z,20.44
2022-09-03T22:28:25.130Z,20.42
2022-09-03T22:31:17.823Z,20.47
2022-09-03T22:34:13.413Z,20.53
2022-09-03T22:36:50.282Z,20.55
2022-09-03T22:39:41.549Z,20.49
2022-09-03T22:42:27.441Z,20.29
2022-09-03T22:45:46.599Z,20.31
2022-09-03T22:48:30.152Z,20.29
2022-09-03T22:50:59.764Z,20.18
2022-09-03T22:53:45.013Z,20.19
2022-09-03T22:56:22.417Z,20.15
2022-09-03T22:59:31.108Z,20.13
2022-09-03T23:02:21.581Z,19.98
2022-09-03T23:05:30.765Z,19.90
2022-09-03T23:08:06.067Z,19.82
2022-09-03T23:10:55.235Z,19.70
2022-09-03T23:13:43.727Z,19.67
2022-09-03T23:16:40.804Z,19.64
2022-09-03T23:21:55.840Z,19.53
2022-09-03T23:24:40.508Z,19.36
2022-09-03T23:27:14.776Z,19.40
2022-09-03T23:29:51.886Z,19.37
2022-09-03T23:32:29.495Z,19.31
2022-09-03T23:35:20.880Z,19.28
2022-09-03T23:38:07.366Z,19.25
2022-09-03T23:40:48.447Z,19.11
2022-09-03T23:43:35.070Z,19.07
2022-09-03T23:46:21.982Z,18.96
2022-09-03T23:49:41.247Z,18.93
2022-09-03T23:52:34.341Z,18.94
2022-09-03T23:55:19.566Z,18.90
2022-09-03T23:58:01.356Z,18.94
